sensor_id;sensor_type;location;lat;lon;timestamp;pressure;altitude;pressure_sealevel;temperature;humidity
71907;BME280;59781;52.090;5.030;2022-09-03T00:01:47;101108.03;;;19.25;42.03
71907;BME280;59781;52.090;5.030;2022-09-03T00:04:52;101118.59;;;19.21;42.00
71907;BME280;59781;52.090;5.030;2022-09-03T00:07:41;101103.56;;;19.05;42.37
71907;BME280;59781;52.090;5.030;2022-09-03T00:10:24;101105.88;;;19.33;42.23
71907;BME280;59781;52.090;5.030;2022-09-03T00:13:00;101105.19;;;19.13;42.31
71907;BME280;59781;52.090;5.030;2022-09-03T00:15:33;101107.41;;;18.98;42.65
71907;BME280;59781;52.090;5.030;2022-09-03T00:18:06;101109.25;;;19.04;42.66
71907;BME280;59781;52.090;5.030;2022-09-03T00:20:42;101100.59;;;19.07;42.92
71907;BME280;59781;52.090;5.030;2022-09-03T00:23:18;101103.16;;;19.08;42.77
71907;BME280;59781;52.090;5.030;2022-09-03T00:28:53;101096.28;;;18.99;42.84
71907;BME280;59781;52.090;5.030;2022-09-03T00:31:36;101102.59;;;18.93;43.27
71907;BME280;59781;52.090;5.030;2022-09-03T00:34:23;101081.78;;;18.99;42.79
71907;BME280;59781;52.090;5.030;2022-09-03T00:36:53;101087.97;;;19.12;42.66
71907;BME280;59781;52.090;5.030;2022-09-03T00:39:22;101082.13;;;19.09;42.67
71907;BME280;59781;52.090;5.030;2022-09-03T00:53:56;101095.34;;;18.80;43.25
71907;BME280;59781;52.090;5.030;2022-09-03T01:42:14;101100.44;;;18.63;43.93
71907;BME280;59781;52.090;5.030;2022-09-03T01:45:16;101103.81;;;18.59;44.38
71907;BME280;59781;52.090;5.030;2022-09-03T02:02:37;101092.91;;;18.66;44.04
71907;BME280;59781;52.090;5.030;2022-09-03T02:07:55;101086.06;;;18.43;45.01
71907;BME280;59781;52.090;5.030;2022-09-03T02:13:19;101087.59;;;18.26;45.35
71907;BME280;59781;52.090;5.030;2022-09-03T02:15:51;101081.81;;;18.47;44.73
71907;BME280;59781;52.090;5.030;2022-09-03T02:18:36;101084.25;;;18.24;45.78
71907;BME280;59781;52.090;5.030;2022-09-03T02:21:07;101082.56;;;18.29;45.50
71907;BME280;59781;52.090;5.030;2022-09-03T02:23:38;101084.88;;;18.26;45.21
71907;BME280;59781;52.090;5.030;2022-09-03T02:26:07;101090.47;;;18.38;44.85
71907;BME280;59781;52.090;5.030;2022-09-03T02:28:36;101088.81;;;18.37;44.95
71907;BME280;59781;52.090;5.030;2022-09-03T02:31:03;101074.56;;;18.28;45.59
71907;BME280;59781;52.090;5.030;2022-09-03T02:33:36;101086.59;;;18.14;45.41
71907;BME280;59781;52.090;5.030;2022-09-03T02:36:07;101081.53;;;18.17;45.57
71907;BME280;59781;52.090;5.030;2022-09-03T02:38:35;101092.66;;;18.22;45.27
71907;BME280;59781;52.090;5.030;2022-09-03T02:41:01;101089.69;;;18.30;45.18
71907;BME280;59781;52.090;5.030;2022-09-03T02:43:51;101082.63;;;18.10;45.83
71907;BME280;59781;52.090;5.030;2022-09-03T02:46:33;101087.88;;;18.04;45.76
71907;BME280;59781;52.090;5.030;2022-09-03T02:49:03;101085.16;;;18.04;45.43
71907;BME280;59781;52.090;5.030;2022-09-03T02:51:36;101081.38;;;17.99;45.94
71907;BME280;59781;52.090;5.030;2022-09-03T02:54:04;101081.38;;;17.99;45.92
71907;BME280;59781;52.090;5.030;2022-09-03T02:56:31;101083.31;;;17.78;46.22
71907;BME280;59781;52.090;5.030;2022-09-03T02:58:56;101078.97;;;17.71;46.72
71907;BME280;59781;52.090;5.030;2022-09-03T03:01:23;101074.75;;;17.82;46.34
71907;BME280;59781;52.090;5.030;2022-09-03T03:03:49;101078.72;;;17.86;46.33
71907;BME280;59781;52.090;5.030;2022-09-03T03:06:15;101077.03;;;17.78;46.13
71907;BME280;59781;52.090;5.030;2022-09-03T03:43:27;101073.50;;;17.71;46.98
71907;BME280;59781;52.090;5.030;2022-09-03T03:45:57;101075.59;;;17.56;47.26
71907;BME280;59781;52.090;5.030;2022-09-03T03:48:24;101064.94;;;17.41;47.95
71907;BME280;59781;52.090;5.030;2022-09-03T03:50:51;101070.78;;;17.31;48.16
71907;BME280;59781;52.090;5.030;2022-09-03T03:53:18;101075.19;;;17.32;48.08
71907;BME280;59781;52.090;5.030;2022-09-03T03:55:58;101066.81;;;17.27;48.26
71907;BME280;59781;52.090;5.030;2022-09-03T03:58:28;101069.91;;;17.57;47.39
71907;BME280;59781;52.090;5.030;2022-09-03T04:01:13;101071.41;;;17.46;48.00
71907;BME280;59781;52.090;5.030;2022-09-03T04:03:41;101074.75;;;17.35;48.35
71907;BME280;59781;52.090;5.030;2022-09-03T04:06:09;101081.88;;;17.30;48.54
71907;BME280;59781;52.090;5.030;2022-09-03T04:08:38;101074.56;;;17.24;48.88
71907;BME280;59781;52.090;5.030;2022-09-03T04:11:09;101078.97;;;17.31;48.32
71907;BME280;59781;52.090;5.030;2022-09-03T04:16:17;101074.13;;;17.33;48.06
71907;BME280;59781;52.090;5.030;2022-09-03T04:18:45;101072.69;;;17.11;48.96
71907;BME280;59781;52.090;5.030;2022-09-03T04:21:17;101076.44;;;17.23;49.02
71907;BME280;59781;52.090;5.030;2022-09-03T04:23:54;101075.59;;;17.09;49.20
71907;BME280;59781;52.090;5.030;2022-09-03T04:26:27;101070.56;;;17.19;48.87
71907;BME280;59781;52.090;5.030;2022-09-03T04:28:56;101077.06;;;17.12;49.45
71907;BME280;59781;52.090;5.030;2022-09-03T04:31:27;101067.66;;;17.14;49.22
71907;BME280;59781;52.090;5.030;2022-09-03T04:33:53;101074.78;;;17.22;48.77
71907;BME280;59781;52.090;5.030;2022-09-03T04:36:22;101082.09;;;17.15;49.32
71907;BME280;59781;52.090;5.030;2022-09-03T04:38:51;101071.41;;;16.94;49.52
71907;BME280;59781;52.090;5.030;2022-09-03T04:41:22;101066.78;;;17.01;49.37
71907;BME280;59781;52.090;5.030;2022-09-03T04:43:51;101075.38;;;17.04;49.49
71907;BME280;59781;52.090;5.030;2022-09-03T04:48:54;101074.75;;;17.09;49.40
71907;BME280;59781;52.090;5.030;2022-09-03T04:51:23;101062.22;;;17.21;49.19
71907;BME280;59781;52.090;5.030;2022-09-03T04:54:01;101065.34;;;17.11;49.33
71907;BME280;59781;52.090;5.030;2022-09-03T04:56:33;101068.69;;;17.07;49.68
71907;BME280;59781;52.090;5.030;2022-09-03T04:59:05;101066.59;;;17.09;49.34
71907;BME280;59781;52.090;5.030;2022-09-03T05:01:34;101055.69;;;17.09;49.42
71907;BME280;59781;52.090;5.030;2022-09-03T05:04:03;101066.38;;;16.97;49.85
71907;BME280;59781;52.090;5.030;2022-09-03T05:06:30;101068.91;;;17.05;49.43
71907;BME280;59781;52.090;5.030;2022-09-03T05:08:59;101069.94;;;17.17;49.03
71907;BME280;59781;52.090;5.030;2022-09-03T05:11:26;101075.97;;;16.80;50.41
71907;BME280;59781;52.090;5.030;2022-09-03T05:13:55;101069.94;;;16.98;50.26
71907;BME280;59781;52.090;5.030;2022-09-03T05:16:24;101074.72;;;16.89;50.27
71907;BME280;59781;52.090;5.030;2022-09-03T05:18:54;101065.91;;;16.74;50.60
71907;BME280;59781;52.090;5.030;2022-09-03T05:21:24;101072.03;;;16.96;49.78
71907;BME280;59781;52.090;5.030;2022-09-03T05:23:51;101069.31;;;17.02;49.72
71907;BME280;59781;52.090;5.030;2022-09-03T05:26:28;101072.22;;;16.94;49.94
71907;BME280;59781;52.090;5.030;2022-09-03T05:29:02;101079.97;;;16.97;50.24
71907;BME280;59781;52.090;5.030;2022-09-03T05:31:33;101070.56;;;17.06;49.93
71907;BME280;59781;52.090;5.030;2022-09-03T05:34:07;101062.81;;;17.03;49.81
71907;BME280;59781;52.090;5.030;2022-09-03T05:36:36;101063.84;;;16.96;50.29
71907;BME280;59781;52.090;5.030;2022-09-03T05:39:04;101063.03;;;17.02;49.82
71907;BME280;59781;52.090;5.030;2022-09-03T05:41:30;101064.50;;;17.04;49.87
71907;BME280;59781;52.090;5.030;2022-09-03T05:43:59;101067.22;;;17.04;49.90
71907;BME280;59781;52.090;5.030;2022-09-03T05:46:29;101054.88;;;17.22;49.13
71907;BME280;59781;52.090;5.030;2022-09-03T05:49:06;101059.25;;;17.29;48.96
71907;BME280;59781;52.090;5.030;2022-09-03T05:51:35;101059.69;;;17.06;50.05
71907;BME280;59781;52.090;5.030;2022-09-03T05:54:03;101061.56;;;17.32;49.27
71907;BME280;59781;52.090;5.030;2022-09-03T05:56:31;101065.34;;;17.44;49.11
71907;BME280;59781;52.090;5.030;2022-09-03T05:59:01;101067.66;;;17.41;48.62
71907;BME280;59781;52.090;5.030;2022-09-03T06:01:42;101074.09;;;17.93;48.11
71907;BME280;59781;52.090;5.030;2022-09-03T06:04:14;101068.25;;;18.41;45.92
71907;BME280;59781;52.090;5.030;2022-09-03T06:06:43;101068.13;;;18.67;45.46
71907;BME280;59781;52.090;5.030;2022-09-03T06:09:16;101064.97;;;19.02;44.55
71907;BME280;59781;52.090;5.030;2022-09-03T06:11:46;101056.41;;;19.48;43.81
71907;BME280;59781;52.090;5.030;2022-09-03T06:14:19;101058.13;;;19.67;43.30
71907;BME280;59781;52.090;5.030;2022-09-03T06:16:47;101058.44;;;19.53;43.44
71907;BME280;59781;52.090;5.030;2022-09-03T06:19:14;101049.53;;;20.37;41.93
71907;BME280;59781;52.090;5.030;2022-09-03T06:21:42;101066.50;;;20.46;41.18
71907;BME280;59781;52.090;5.030;2022-09-03T06:24:17;101059.78;;;21.13;40.00
71907;BME280;59781;52.090;5.030;2022-09-03T06:26:44;101064.84;;;21.28;38.75
71907;BME280;59781;52.090;5.030;2022-09-03T06:29:11;101060.59;;;20.60;40.96
71907;BME280;59781;52.090;5.030;2022-09-03T06:31:37;101072.75;;;20.95;40.64
71907;BME280;59781;52.090;5.030;2022-09-03T06:34:04;101058.78;;;21.38;39.67
71907;BME280;59781;52.090;5.030;2022-09-03T06:36:30;101067.94;;;21.32;39.64
71907;BME280;59781;52.090;5.030;2022-09-03T06:38:57;101061.47;;;20.73;40.84
71907;BME280;59781;52.090;5.030;2022-09-03T06:41:25;101057.53;;;20.20;42.45
71907;BME280;59781;52.090;5.030;2022-09-03T06:43:57;101059.03;;;20.65;40.67
71907;BME280;59781;52.090;5.030;2022-09-03T06:46:30;101068.97;;;20.66;41.69
71907;BME280;59781;52.090;5.030;2022-09-03T06:48:57;101060.81;;;20.59;41.03
71907;BME280;59781;52.090;5.030;2022-09-03T06:51:25;101064.16;;;20.91;40.61
71907;BME280;59781;52.090;5.030;2022-09-03T06:53:58;101064.59;;;20.76;40.94
71907;BME280;59781;52.090;5.030;2022-09-03T06:56:30;101064.91;;;21.22;40.28
71907;BME280;59781;52.090;5.030;2022-09-03T06:59:02;101064.75;;;21.70;38.95
71907;BME280;59781;52.090;5.030;2022-09-03T07:01:31;101064.97;;;21.68;39.17
71907;BME280;59781;52.090;5.030;2022-09-03T07:04:00;101075.31;;;22.01;38.59
71907;BME280;59781;52.090;5.030;2022-09-03T07:06:35;101068.91;;;21.49;39.47
71907;BME280;59781;52.090;5.030;2022-09-03T07:09:08;101071.53;;;21.67;39.49
71907;BME280;59781;52.090;5.030;2022-09-03T07:11:36;101076.06;;;22.09;37.97
71907;BME280;59781;52.090;5.030;2022-09-03T07:14:04;101080.09;;;22.86;36.84
71907;BME280;59781;52.090;5.030;2022-09-03T07:16:35;101072.28;;;22.67;37.10
71907;BME280;59781;52.090;5.030;2022-09-03T07:19:02;101074.72;;;22.80;37.25
71907;BME280;59781;52.090;5.030;2022-09-03T07:21:33;101067.56;;;22.62;37.44
71907;BME280;59781;52.090;5.030;2022-09-03T07:24:01;101074.16;;;23.23;36.10
71907;BME280;59781;52.090;5.030;2022-09-03T07:26:32;101074.97;;;23.07;36.97
71907;BME280;59781;52.090;5.030;2022-09-03T07:28:59;101059.63;;;23.78;35.50
71907;BME280;59781;52.090;5.030;2022-09-03T07:31:35;101063.53;;;24.43;34.11
71907;BME280;59781;52.090;5.030;2022-09-03T07:34:05;101072.66;;;23.66;35.02
71907;BME280;59781;52.090;5.030;2022-09-03T07:36:38;101080.13;;;23.03;36.05
71907;BME280;59781;52.090;5.030;2022-09-03T07:39:12;101079.19;;;23.60;35.46
71907;BME280;59781;52.090;5.030;2022-09-03T07:41:40;101081.88;;;23.93;34.89
71907;BME280;59781;52.090;5.030;2022-09-03T07:44:15;101079.78;;;24.22;35.13
71907;BME280;59781;52.090;5.030;2022-09-03T07:46:43;101082.97;;;23.75;35.11
71907;BME280;59781;52.090;5.030;2022-09-03T07:49:10;101085.09;;;24.29;34.42
71907;BME280;59781;52.090;5.030;2022-09-03T07:51:37;101089.94;;;23.61;35.02
71907;BME280;59781;52.090;5.030;2022-09-03T07:54:05;101082.50;;;24.66;33.84
71907;BME280;59781;52.090;5.030;2022-09-03T07:56:35;101091.59;;;24.40;33.85
71907;BME280;59781;52.090;5.030;2022-09-03T07:59:02;101079.06;;;24.10;34.31
71907;BME280;59781;52.090;5.030;2022-09-03T08:01:30;101079.72;;;24.61;33.68
71907;BME280;59781;52.090;5.030;2022-09-03T08:03:57;101078.84;;;24.34;34.39
71907;BME280;59781;52.090;5.030;2022-09-03T08:06:26;101085.50;;;25.13;33.43
71907;BME280;59781;52.090;5.030;2022-09-03T08:08:55;101092.53;;;24.50;34.38
71907;BME280;59781;52.090;5.030;2022-09-03T08:11:27;101094.88;;;24.64;34.19
71907;BME280;59781;52.090;5.030;2022-09-03T08:14:02;101092.72;;;25.20;32.75
71907;BME280;59781;52.090;5.030;2022-09-03T08:16:39;101100.59;;;24.57;34.04
71907;BME280;59781;52.090;5.030;2022-09-03T08:19:08;101107.84;;;25.17;33.07
71907;BME280;59781;52.090;5.030;2022-09-03T08:21:36;101106.13;;;24.84;33.01
71907;BME280;59781;52.090;5.030;2022-09-03T08:24:01;101099.50;;;24.58;33.27
71907;BME280;59781;52.090;5.030;2022-09-03T08:26:34;101110.72;;;25.27;32.88
71907;BME280;59781;52.090;5.030;2022-09-03T08:29:04;101104.53;;;25.84;32.87
71907;BME280;59781;52.090;5.030;2022-09-03T08:31:32;101099.09;;;26.47;31.20
71907;BME280;59781;52.090;5.030;2022-09-03T08:34:00;101098.63;;;26.08;31.53
71907;BME280;59781;52.090;5.030;2022-09-03T08:36:33;101098.25;;;25.94;31.59
71907;BME280;59781;52.090;5.030;2022-09-03T08:39:03;101110.25;;;25.72;31.83
71907;BME280;59781;52.090;5.030;2022-09-03T08:44:30;101100.47;;;25.23;32.99
71907;BME280;59781;52.090;5.030;2022-09-03T08:47:16;101102.03;;;25.78;32.31
71907;BME280;59781;52.090;5.030;2022-09-03T08:52:59;101101.44;;;26.18;31.55
71907;BME280;59781;52.090;5.030;2022-09-03T08:58:18;101098.66;;;27.01;31.47
71907;BME280;59781;52.090;5.030;2022-09-03T09:07:24;101095.25;;;28.21;29.24
71907;BME280;59781;52.090;5.030;2022-09-03T09:10:09;101100.66;;;27.61;29.43
71907;BME280;59781;52.090;5.030;2022-09-03T09:16:06;101108.69;;;27.83;28.69
71907;BME280;59781;52.090;5.030;2022-09-03T09:22:05;101107.84;;;27.22;30.11
71907;BME280;59781;52.090;5.030;2022-09-03T09:24:41;101110.34;;;27.49;29.63
71907;BME280;59781;52.090;5.030;2022-09-03T09:27:14;101109.53;;;27.63;29.30
71907;BME280;59781;52.090;5.030;2022-09-03T09:29:49;101107.28;;;27.81;29.70
71907;BME280;59781;52.090;5.030;2022-09-03T09:32:18;101102.56;;;27.96;29.00
71907;BME280;59781;52.090;5.030;2022-09-03T09:34:44;101100.63;;;28.67;28.71
71907;BME280;59781;52.090;5.030;2022-09-03T09:37:13;101099.16;;;28.79;27.82
71907;BME280;59781;52.090;5.030;2022-09-03T09:39:57;101103.44;;;28.62;28.23
71907;BME280;59781;52.090;5.030;2022-09-03T09:42:26;101104.50;;;27.96;28.52
71907;BME280;59781;52.090;5.030;2022-09-03T09:44:54;101099.28;;;27.59;28.38
71907;BME280;59781;52.090;5.030;2022-09-03T09:47:30;101091.13;;;28.18;28.83
71907;BME280;59781;52.090;5.030;2022-09-03T09:50:16;101090.41;;;29.11;27.40
71907;BME280;59781;52.090;5.030;2022-09-03T09:52:45;101097.00;;;29.21;26.81
71907;BME280;59781;52.090;5.030;2022-09-03T09:55:18;101101.31;;;28.98;26.85
71907;BME280;59781;52.090;5.030;2022-09-03T09:57:44;101107.00;;;28.72;27.60
71907;BME280;59781;52.090;5.030;2022-09-03T10:00:14;101109.31;;;29.04;26.93
71907;BME280;59781;52.090;5.030;2022-09-03T10:02:50;101093.09;;;28.77;27.72
71907;BME280;59781;52.090;5.030;2022-09-03T10:05:27;101095.66;;;29.76;27.23
71907;BME280;59781;52.090;5.030;2022-09-03T10:08:00;101098.09;;;29.83;26.71
71907;BME280;59781;52.090;5.030;2022-09-03T10:10:32;101097.28;;;30.06;25.79
71907;BME280;59781;52.090;5.030;2022-09-03T10:13:17;101091.09;;;29.27;26.92
71907;BME280;59781;52.090;5.030;2022-09-03T10:16:07;101092.94;;;29.42;26.76
71907;BME280;59781;52.090;5.030;2022-09-03T10:18:53;101092.97;;;29.71;26.71
71907;BME280;59781;52.090;5.030;2022-09-03T10:24:40;101091.19;;;30.09;25.53
71907;BME280;59781;52.090;5.030;2022-09-03T10:27:17;101086.28;;;30.44;26.00
71907;BME280;59781;52.090;5.030;2022-09-03T10:29:44;101090.59;;;29.83;25.32
71907;BME280;59781;52.090;5.030;2022-09-03T10:40:29;101086.47;;;30.05;26.80
71907;BME280;59781;52.090;5.030;2022-09-03T10:46:27;101076.00;;;30.68;25.56
71907;BME280;59781;52.090;5.030;2022-09-03T10:49:20;101070.72;;;30.24;26.25
71907;BME280;59781;52.090;5.030;2022-09-03T10:58:15;101065.06;;;31.42;24.89
71907;BME280;59781;52.090;5.030;2022-09-03T11:01:25;101073.13;;;30.92;25.04
71907;BME280;59781;52.090;5.030;2022-09-03T11:07:09;101074.75;;;31.31;24.10
71907;BME280;59781;52.090;5.030;2022-09-03T11:09:51;101073.81;;;30.41;24.99
71907;BME280;59781;52.090;5.030;2022-09-03T11:13:00;101071.50;;;30.48;25.12
71907;BME280;59781;52.090;5.030;2022-09-03T11:15:52;101068.84;;;30.81;25.76
71907;BME280;59781;52.090;5.030;2022-09-03T11:18:36;101063.94;;;30.73;25.34
71907;BME280;59781;52.090;5.030;2022-09-03T11:21:11;101064.19;;;30.34;25.65
71907;BME280;59781;52.090;5.030;2022-09-03T11:23:49;101061.72;;;30.08;25.63
71907;BME280;59781;52.090;5.030;2022-09-03T11:26:25;101066.50;;;30.26;25.79
71907;BME280;59781;52.090;5.030;2022-09-03T11:29:19;101064.31;;;30.85;25.16
71907;BME280;59781;52.090;5.030;2022-09-03T11:32:25;101059.44;;;30.15;25.86
71907;BME280;59781;52.090;5.030;2022-09-03T11:35:27;101061.41;;;29.86;26.18
71907;BME280;59781;52.090;5.030;2022-09-03T11:37:59;101070.81;;;30.56;26.04
71907;BME280;59781;52.090;5.030;2022-09-03T11:40:36;101069.56;;;30.49;25.67
71907;BME280;59781;52.090;5.030;2022-09-03T11:43:25;101072.41;;;31.38;24.64
71907;BME280;59781;52.090;5.030;2022-09-03T11:46:26;101062.97;;;30.21;25.71
71907;BME280;59781;52.090;5.030;2022-09-03T11:49:09;101053.41;;;31.07;24.98
71907;BME280;59781;52.090;5.030;2022-09-03T11:51:38;101057.75;;;31.46;24.65
71907;BME280;59781;52.090;5.030;2022-09-03T11:56:43;101063.19;;;30.67;25.84
71907;BME280;59781;52.090;5.030;2022-09-03T12:01:42;101056.03;;;30.18;26.43
71907;BME280;59781;52.090;5.030;2022-09-03T12:04:28;101062.91;;;30.26;25.58
71907;BME280;59781;52.090;5.030;2022-09-03T12:13:04;101061.28;;;30.44;25.51
71907;BME280;59781;52.090;5.030;2022-09-03T12:18:54;101061.19;;;30.30;25.72
71907;BME280;59781;52.090;5.030;2022-09-03T12:21:48;101063.09;;;30.53;26.43
71907;BME280;59781;52.090;5.030;2022-09-03T12:24:15;101067.22;;;30.13;26.44
71907;BME280;59781;52.090;5.030;2022-09-03T12:32:30;101075.13;;;30.68;25.99
71907;BME280;59781;52.090;5.030;2022-09-03T12:35:18;101072.09;;;30.88;26.59
71907;BME280;59781;52.090;5.030;2022-09-03T12:37:46;101069.13;;;30.61;26.08
71907;BME280;59781;52.090;5.030;2022-09-03T12:40:22;101065.50;;;30.41;25.88
71907;BME280;59781;52.090;5.030;2022-09-03T12:42:51;101073.72;;;31.27;26.06
71907;BME280;59781;52.090;5.030;2022-09-03T12:45:23;101070.34;;;30.92;25.43
71907;BME280;59781;52.090;5.030;2022-09-03T12:47:52;101064.56;;;30.27;26.94
71907;BME280;59781;52.090;5.030;2022-09-03T12:50:21;101068.16;;;31.08;24.66
71907;BME280;59781;52.090;5.030;2022-09-03T12:52:59;101069.50;;;31.10;25.79
71907;BME280;59781;52.090;5.030;2022-09-03T12:59:16;101061.47;;;30.90;24.46
71907;BME280;59781;52.090;5.030;2022-09-03T13:01:30;101066.19;;;30.52;25.72
71907;BME280;59781;52.090;5.030;2022-09-03T13:04:09;101066.78;;;30.87;25.52
71907;BME280;59781;52.090;5.030;2022-09-03T13:06:58;101064.00;;;31.05;25.30
71907;BME280;59781;52.090;5.030;2022-09-03T13:09:31;101073.34;;;30.77;25.23
71907;BME280;59781;52.090;5.030;2022-09-03T13:12:00;101072.00;;;30.32;25.80
71907;BME280;59781;52.090;5.030;2022-09-03T13:14:42;101059.94;;;29.93;26.44
71907;BME280;59781;52.090;5.030;2022-09-03T13:17:25;101059.69;;;30.56;25.88
71907;BME280;59781;52.090;5.030;2022-09-03T13:23:09;101054.59;;;30.64;25.34
71907;BME280;59781;52.090;5.030;2022-09-03T13:28:48;101054.56;;;30.02;27.16
71907;BME280;59781;52.090;5.030;2022-09-03T13:31:41;101054.38;;;30.41;26.22
71907;BME280;59781;52.090;5.030;2022-09-03T13:34:15;101052.25;;;30.33;25.47
71907;BME280;59781;52.090;5.030;2022-09-03T13:36:57;101050.38;;;30.47;25.94
71907;BME280;59781;52.090;5.030;2022-09-03T13:39:46;101045.41;;;30.02;26.09
71907;BME280;59781;52.090;5.030;2022-09-03T13:45:40;101051.78;;;30.02;25.97
71907;BME280;59781;52.090;5.030;2022-09-03T13:48:13;101042.63;;;29.78;27.00
71907;BME280;59781;52.090;5.030;2022-09-03T13:54:06;101036.72;;;29.84;26.73
71907;BME280;59781;52.090;5.030;2022-09-03T14:02:54;101045.81;;;28.58;27.17
71907;BME280;59781;52.090;5.030;2022-09-03T14:05:53;101042.69;;;29.09;27.40
71907;BME280;59781;52.090;5.030;2022-09-03T14:08:29;101041.13;;;29.32;28.22
71907;BME280;59781;52.090;5.030;2022-09-03T14:19:55;101037.06;;;29.20;28.15
71907;BME280;59781;52.090;5.030;2022-09-03T14:22:52;101041.69;;;29.29;27.75
71907;BME280;59781;52.090;5.030;2022-09-03T14:25:27;101040.31;;;29.27;26.98
71907;BME280;59781;52.090;5.030;2022-09-03T14:28:13;101050.38;;;29.23;26.06
71907;BME280;59781;52.090;5.030;2022-09-03T14:34:22;101048.50;;;28.69;26.77
71907;BME280;59781;52.090;5.030;2022-09-03T14:51:11;101044.91;;;28.73;28.46
71907;BME280;59781;52.090;5.030;2022-09-03T14:56:55;101054.72;;;28.50;28.70
71907;BME280;59781;52.090;5.030;2022-09-03T15:00:08;101043.09;;;28.53;29.28
71907;BME280;59781;52.090;5.030;2022-09-03T15:08:54;101046.50;;;28.30;27.43
71907;BME280;59781;52.090;5.030;2022-09-03T15:11:32;101047.88;;;28.38;28.80
71907;BME280;59781;52.090;5.030;2022-09-03T15:14:20;101049.22;;;28.45;26.73
71907;BME280;59781;52.090;5.030;2022-09-03T15:17:18;101051.28;;;28.14;27.51
71907;BME280;59781;52.090;5.030;2022-09-03T15:20:20;101048.84;;;28.62;26.83
71907;BME280;59781;52.090;5.030;2022-09-03T15:23:15;101058.94;;;28.38;27.98
71907;BME280;59781;52.090;5.030;2022-09-03T15:26:23;101054.88;;;28.15;27.41
71907;BME280;59781;52.090;5.030;2022-09-03T15:32:31;101054.00;;;28.19;27.78
71907;BME280;59781;52.090;5.030;2022-09-03T15:35:44;101055.13;;;28.18;28.37
71907;BME280;59781;52.090;5.030;2022-09-03T15:40:53;101066.28;;;28.03;28.32
71907;BME280;59781;52.090;5.030;2022-09-03T15:43:32;101059.34;;;28.06;28.92
71907;BME280;59781;52.090;5.030;2022-09-03T15:49:30;101057.97;;;28.03;28.56
71907;BME280;59781;52.090;5.030;2022-09-03T15:55:10;101063.97;;;28.25;28.77
71907;BME280;59781;52.090;5.030;2022-09-03T16:01:12;101064.31;;;28.09;28.74
71907;BME280;59781;52.090;5.030;2022-09-03T16:09:53;101054.59;;;28.16;27.58
71907;BME280;59781;52.090;5.030;2022-09-03T16:12:33;101061.59;;;27.88;28.54
71907;BME280;59781;52.090;5.030;2022-09-03T16:15:32;101066.28;;;27.98;27.75
71907;BME280;59781;52.090;5.030;2022-09-03T16:18:11;101060.47;;;27.99;28.02
71907;BME280;59781;52.090;5.030;2022-09-03T16:23:54;101063.25;;;27.89;28.26
71907;BME280;59781;52.090;5.030;2022-09-03T16:26:46;101052.22;;;27.84;27.57
71907;BME280;59781;52.090;5.030;2022-09-03T16:29:25;101064.13;;;27.59;29.18
71907;BME280;59781;52.090;5.030;2022-09-03T16:32:11;101057.22;;;27.77;28.79
71907;BME280;59781;52.090;5.030;2022-09-03T16:37:57;101069.69;;;27.75;28.26
71907;BME280;59781;52.090;5.030;2022-09-03T16:46:49;101067.75;;;27.39;29.75
71907;BME280;59781;52.090;5.030;2022-09-03T16:49:36;101058.59;;;27.64;29.36
71907;BME280;59781;52.090;5.030;2022-09-03T16:55:23;101064.41;;;27.42;29.34
71907;BME280;59781;52.090;5.030;2022-09-03T17:10:48;101063.56;;;26.76;30.52
71907;BME280;59781;52.090;5.030;2022-09-03T17:13:53;101068.56;;;26.94;29.63
71907;BME280;59781;52.090;5.030;2022-09-03T17:25:53;101067.41;;;26.75;30.93
71907;BME280;59781;52.090;5.030;2022-09-03T17:43:34;101084.19;;;26.53;31.46
71907;BME280;59781;52.090;5.030;2022-09-03T17:49:47;101092.56;;;26.11;32.52
71907;BME280;59781;52.090;5.030;2022-09-03T17:53:18;101100.41;;;25.82;33.12
71907;BME280;59781;52.090;5.030;2022-09-03T17:55:36;101100.09;;;25.78;32.88
71907;BME280;59781;52.090;5.030;2022-09-03T18:01:16;101108.38;;;25.46;36.07
71907;BME280;59781;52.090;5.030;2022-09-03T18:07:16;101119.25;;;25.58;35.83
71907;BME280;59781;52.090;5.030;2022-09-03T18:18:29;101131.41;;;23.77;41.39
71907;BME280;59781;52.090;5.030;2022-09-03T18:21:06;101139.13;;;23.46;42.40
71907;BME280;59781;52.090;5.030;2022-09-03T18:27:26;101144.28;;;22.97;44.75
71907;BME280;59781;52.090;5.030;2022-09-03T18:30:16;101146.16;;;22.68;45.35
71907;BME280;59781;52.090;5.030;2022-09-03T18:33:01;101164.94;;;22.59;46.79
71907;BME280;59781;52.090;5.030;2022-09-03T18:35:46;101159.59;;;22.53;47.17
71907;BME280;59781;52.090;5.030;2022-09-03T18:38:33;101157.50;;;22.20;48.23
71907;BME280;59781;52.090;5.030;2022-09-03T18:41:39;101158.09;;;22.10;48.30
71907;BME280;59781;52.090;5.030;2022-09-03T18:55:14;101177.53;;;21.73;50.95
71907;BME280;59781;52.090;5.030;2022-09-03T18:58:30;101179.72;;;21.53;51.05
71907;BME280;59781;52.090;5.030;2022-09-03T19:01:34;101182.69;;;21.40;52.76
71907;BME280;59781;52.090;5.030;2022-09-03T19:07:30;101188.19;;;21.22;53.33
71907;BME280;59781;52.090;5.030;2022-09-03T19:10:41;101194.53;;;21.04;54.44
71907;BME280;59781;52.090;5.030;2022-09-03T19:13:34;101203.09;;;20.96;54.04
71907;BME280;59781;52.090;5.030;2022-09-03T19:16:31;101206.22;;;20.81;55.48
71907;BME280;59781;52.090;5.030;2022-09-03T19:19:38;101201.75;;;20.68;55.70
71907;BME280;59781;52.090;5.030;2022-09-03T19:22:41;101213.47;;;20.57;56.26
71907;BME280;59781;52.090;5.030;2022-09-03T19:25:28;101202.53;;;20.57;56.44
71907;BME280;59781;52.090;5.030;2022-09-03T19:28:18;101200.59;;;20.39;57.12
71907;BME280;59781;52.090;5.030;2022-09-03T19:31:23;101208.09;;;20.25;57.99
71907;BME280;59781;52.090;5.030;2022-09-03T19:37:24;101210.34;;;20.10;60.19
71907;BME280;59781;52.090;5.030;2022-09-03T19:40:31;101213.81;;;19.99;60.49